Aeroporto :
LOGIN :

Iscrizione | Disclaimer

   EN    FR    IT 

 










Sommario :    VFR   VFR Marginale   IFR   IFR Intensivo   IFR Molto Intensivo
Visibilità : 
Base nubi : 
>= 8 km
>= 3000ft
5 / 8 km
1000 / 3000 ft
1500m / 5 km
500 / 1000 ft
800 / 1500m
200 / 500 ft
< 800m
< 200 ft
Simboli :   Temporali  Nebbia  Neve Forte  Precipitazioni Forti  Vento > 20 kt
SIGMETs :   Varie  Temporali  Ghiacco  Turbolenza  Onda orograficha  Ceneri Vulcaniche






- Altitudine del aeroporto : 584 ft


LFPV - Villacoublay Vélizy

ULTIMO METAR :
  • 231930Z AUTO 30010KT 9999 FEW008 02/01 Q0997 NOSIG

METARs OBSOLETI :
  • 231900Z AUTO 30010KT 9999 OVC010 02/01 Q0996 BECMG OVC015
  • 231830Z AUTO 31010KT 9999 BKN010 OVC014 03/01 Q0996 BECMG OVC015
  • 231800Z AUTO 31011KT 290V350 9999 OVC008 03/01 Q0995 BECMG OVC015
  • 231730Z AUTO 31013KT 9999 OVC009 03/01 Q0995 BECMG OVC015
  • 231700Z AUTO 32014KT 9999 OVC008 02/01 Q0995 TEMPO BKN021 BKN028TCU
  • 231630Z AUTO 32012G24KT 290V350 9999 BKN009 OVC014 02/01 Q0994 TEMPO BKN021 BKN028TCU

Previsioni scadute.



MetMap, La meteo Aeronautica in un colpo d'occhio ! - Copyright ORBIFLY Dicembre 2007 - Disclaimer

ORBIFLY MET'MAP TEAM :

Programmazione e sviluppo : Alexandra Zaïnal
Concezione : Baudouin d'Aumeries
Aiuto per la programmazione : Marc-Olivier Méhu
Supporto tecnico e logistico : Manuel Goepfert
Aiuto per la traduzione : Arnaldo La Scala

Contatto : metmap@orbifly.com




FONTI E CREDITI :

   NOAA